Time;durP1;ratioP1;P1;durP2;ratioP2;P2;SDS_P1;SDS_P2;PMS_P1;PMS_P2;Temp;Humidity;BMP_temperature;BMP_pressure;BME280_temperature;BME280_humidity;BME280_pressure;Samples;Min_cycle;Max_cycle;Signal;HPM_P1;HPM_P2
2023/04/11 00:02:00;;;;;;;5.83;1.10;;;;;;;;;;5063162;28;20212;-44
2023/04/11 00:04:28;;;;;;;1.20;1.10;;;;;;;;;;5061518;28;20226;-40
2023/04/11 00:06:55;;;;;;;1.77;0.90;;;;;;;;;;5070523;28;20492;-39
2023/04/11 00:09:22;;;;;;;2.67;1.00;;;;;;;;;;5066675;28;20718;-37
2023/04/11 00:11:49;;;;;;;1.83;1.10;;;;;;;;;;5064389;28;20229;-43
2023/04/11 00:14:18;;;;;;;0.90;0.90;;;;;;;;;;5070288;28;20222;-44
2023/04/11 00:16:48;;;;;;;0.90;0.90;;;;;;;;;;5059994;28;21357;-38
2023/04/11 00:19:15;;;;;;;3.20;1.20;;;;;;;;;;5067278;28;20506;-42
2023/04/11 00:21:42;;;;;;;2.13;1.40;;;;;;;;;;5070802;28;20198;-42
2023/04/11 00:24:10;;;;;;;2.60;1.20;;;;;;;;;;5070691;28;20315;-40
2023/04/11 00:26:38;;;;;;;0.90;0.90;;;;;;;;;;5061518;28;20607;-42
2023/04/11 00:29:05;;;;;;;1.10;1.00;;;;;;;;;;5066349;28;20708;-35
2023/04/11 00:31:34;;;;;;;2.63;1.10;;;;;;;;;;5059660;28;20215;-38
2023/04/11 00:34:01;;;;;;;1.40;1.20;;;;;;;;;;5064107;28;20217;-42
2023/04/11 00:36:28;;;;;;;1.73;1.03;;;;;;;;;;5071501;28;20385;-38
2023/04/11 00:38:57;;;;;;;1.03;1.00;;;;;;;;;;5071063;28;20316;-41
2023/04/11 00:41:24;;;;;;;1.23;1.10;;;;;;;;;;5064266;28;20201;-38
2023/04/11 00:43:53;;;;;;;1.80;1.20;;;;;;;;;;5072682;28;20312;-45
2023/04/11 00:46:21;;;;;;;0.80;0.80;;;;;;;;;;5063994;28;20229;-39
2023/04/11 00:48:50;;;;;;;3.07;1.10;;;;;;;;;;5072329;28;20282;-42
2023/04/11 00:51:18;;;;;;;1.70;1.10;;;;;;;;;;5072970;28;20240;-38
2023/04/11 00:53:45;;;;;;;3.93;0.93;;;;;;;;;;5073444;28;20319;-41
2023/04/11 00:56:12;;;;;;;1.07;0.97;;;;;;;;;;5069804;28;20279;-40
2023/04/11 00:58:40;;;;;;;1.07;1.00;;;;;;;;;;5070436;28;20202;-39
2023/04/11 01:01:08;;;;;;;0.93;0.80;;;;;;;;;;5063428;28;20209;-40
2023/04/11 01:03:36;;;;;;;1.20;1.20;;;;;;;;;;5071226;28;20734;-39
2023/04/11 01:06:05;;;;;;;5.03;1.20;;;;;;;;;;5072224;28;20205;-37
2023/04/11 01:08:32;;;;;;;1.47;0.90;;;;;;;;;;5069143;28;20211;-38
2023/04/11 01:11:00;;;;;;;0.90;0.90;;;;;;;;;;5071298;28;20288;-36
2023/04/11 01:13:28;;;;;;;2.57;1.40;;;;;;;;;;5072441;28;20214;-42
2023/04/11 01:15:55;;;;;;;1.53;1.10;;;;;;;;;;5064959;28;20199;-40
2023/04/11 01:18:22;;;;;;;0.93;0.90;;;;;;;;;;5060902;28;20208;-41
2023/04/11 01:20:50;;;;;;;1.03;0.93;;;;;;;;;;5072069;28;20216;-39
2023/04/11 01:23:21;;;;;;;0.80;0.80;;;;;;;;;;5072082;28;20225;-39
2023/04/11 01:25:48;;;;;;;2.07;1.27;;;;;;;;;;5056181;28;20213;-42
2023/04/11 01:28:15;;;;;;;1.17;0.87;;;;;;;;;;5067526;28;20221;-40
2023/04/11 01:30:43;;;;;;;2.30;1.07;;;;;;;;;;5067735;28;20719;-40
2023/04/11 01:33:10;;;;;;;4.20;1.00;;;;;;;;;;5064108;28;20213;-37
2023/04/11 01:35:37;;;;;;;1.30;1.00;;;;;;;;;;5062887;28;20263;-43
2023/04/11 01:38:05;;;;;;;2.93;1.10;;;;;;;;;;5052528;28;20203;-40
2023/04/11 01:40:33;;;;;;;1.00;1.00;;;;;;;;;;5047728;28;20230;-36
2023/04/11 01:43:02;;;;;;;0.83;0.83;;;;;;;;;;5036808;28;20240;-40
2023/04/11 01:45:29;;;;;;;1.00;0.97;;;;;;;;;;5029634;28;20637;-43
2023/04/11 01:47:57;;;;;;;0.90;0.90;;;;;;;;;;5039375;28;20207;-36
2023/04/11 01:50:24;;;;;;;0.90;0.87;;;;;;;;;;5051465;28;20206;-39
2023/04/11 01:52:52;;;;;;;1.13;1.03;;;;;;;;;;5032043;28;20660;-37
2023/04/11 01:55:19;;;;;;;2.37;1.10;;;;;;;;;;5031972;28;20207;-39
2023/04/11 01:57:47;;;;;;;1.63;1.17;;;;;;;;;;5048577;28;20200;-44
2023/04/11 02:00:15;;;;;;;2.00;0.80;;;;;;;;;;5046817;28;20307;-41
2023/04/11 02:02:42;;;;;;;1.63;1.03;;;;;;;;;;5032350;28;20519;-39
2023/04/11 02:05:09;;;;;;;1.67;1.10;;;;;;;;;;5051346;28;20201;-37
2023/04/11 02:07:37;;;;;;;2.90;1.27;;;;;;;;;;5051598;28;20199;-40
2023/04/11 02:10:04;;;;;;;1.40;1.20;;;;;;;;;;5044574;28;20256;-41
2023/04/11 02:12:32;;;;;;;1.30;1.17;;;;;;;;;;5049368;28;20415;-39
2023/04/11 02:15:00;;;;;;;2.97;1.17;;;;;;;;;;5038838;28;20199;-36
2023/04/11 02:17:29;;;;;;;1.10;1.00;;;;;;;;;;5034891;28;20207;-36
2023/04/11 02:19:57;;;;;;;1.83;1.20;;;;;;;;;;5046097;28;20223;-42
2023/04/11 02:22:24;;;;;;;0.90;0.90;;;;;;;;;;5031321;28;20208;-42
2023/04/11 02:24:52;;;;;;;1.30;1.13;;;;;;;;;;5033966;28;20210;-38
2023/04/11 02:27:19;;;;;;;3.40;1.20;;;;;;;;;;5042173;28;20260;-40
2023/04/11 02:29:46;;;;;;;2.00;1.20;;;;;;;;;;5038892;28;20649;-40
2023/04/11 02:32:15;;;;;;;1.20;1.10;;;;;;;;;;5031638;28;20205;-39
2023/04/11 02:34:42;;;;;;;1.50;1.03;;;;;;;;;;5049630;28;20230;-40
2023/04/11 02:37:09;;;;;;;4.03;1.60;;;;;;;;;;5068993;28;20213;-43
2023/04/11 02:39:36;;;;;;;1.13;1.03;;;;;;;;;;5061603;28;20231;-40
2023/04/11 02:42:03;;;;;;;2.20;1.30;;;;;;;;;;5057690;28;20439;-38
2023/04/11 02:44:30;;;;;;;1.90;1.10;;;;;;;;;;5071141;28;20620;-39
2023/04/11 02:46:58;;;;;;;0.97;0.97;;;;;;;;;;5062520;28;20198;-41
2023/04/11 02:49:27;;;;;;;2.47;1.00;;;;;;;;;;5070257;28;20234;-38
2023/04/11 02:51:54;;;;;;;1.77;0.97;;;;;;;;;;5071086;28;20203;-41
2023/04/11 02:54:21;;;;;;;1.93;0.97;;;;;;;;;;5066576;28;20520;-40
2023/04/11 02:56:48;;;;;;;1.47;0.70;;;;;;;;;;5066960;28;20294;-38
2023/04/11 02:59:15;;;;;;;0.73;0.70;;;;;;;;;;5072071;28;20221;-43
2023/04/11 03:01:43;;;;;;;3.43;0.50;;;;;;;;;;5067428;28;20216;-43
2023/04/11 03:04:10;;;;;;;0.73;0.50;;;;;;;;;;5070511;28;20258;-38
2023/04/11 03:06:38;;;;;;;1.07;0.67;;;;;;;;;;5070748;28;20198;-44
2023/04/11 03:09:06;;;;;;;0.70;0.70;;;;;;;;;;5067214;28;20214;-40
2023/04/11 03:11:33;;;;;;;0.70;0.50;;;;;;;;;;5058171;28;20226;-40
2023/04/11 03:14:00;;;;;;;0.37;0.30;;;;;;;;;;5067946;28;20576;-39
2023/04/11 03:16:27;;;;;;;0.90;0.50;;;;;;;;;;5063587;28;20301;-40
2023/04/11 03:18:55;;;;;;;1.50;0.40;;;;;;;;;;5069625;28;20204;-41
2023/04/11 03:21:22;;;;;;;0.13;0.13;;;;;;;;;;5069535;28;20247;-42
2023/04/11 03:23:50;;;;;;;0.50;0.50;;;;;;;;;;5070347;28;20236;-42
2023/04/11 03:26:18;;;;;;;0.40;0.40;;;;;;;;;;5061196;28;20198;-42
2023/04/11 03:28:45;;;;;;;0.50;0.50;;;;;;;;;;5066334;28;20206;-43
2023/04/11 03:31:12;;;;;;;0.60;0.60;;;;;;;;;;5061213;28;20203;-44
2023/04/11 03:33:40;;;;;;;0.43;0.30;;;;;;;;;;5067581;28;20222;-41
2023/04/11 03:36:07;;;;;;;0.40;0.40;;;;;;;;;;5069726;28;20212;-35
2023/04/11 03:38:35;;;;;;;0.30;0.23;;;;;;;;;;5069827;28;20210;-41
2023/04/11 03:41:03;;;;;;;0.97;0.40;;;;;;;;;;5062389;28;20222;-33
2023/04/11 03:43:30;;;;;;;0.80;0.57;;;;;;;;;;5064373;28;20247;-38
2023/04/11 03:45:58;;;;;;;2.73;0.50;;;;;;;;;;5066736;28;20197;-39
2023/04/11 03:48:28;;;;;;;1.13;0.60;;;;;;;;;;5068397;28;20198;-40
2023/04/11 03:50:55;;;;;;;1.10;0.57;;;;;;;;;;5069729;28;20285;-38
2023/04/11 03:53:22;;;;;;;0.77;0.53;;;;;;;;;;5069442;28;20439;-42
2023/04/11 03:55:51;;;;;;;0.53;0.53;;;;;;;;;;5063588;28;20214;-44
2023/04/11 03:58:20;;;;;;;0.97;0.70;;;;;;;;;;5068486;28;20208;-37
2023/04/11 04:00:47;;;;;;;0.50;0.50;;;;;;;;;;5064314;28;20279;-42
2023/04/11 04:03:14;;;;;;;1.10;0.80;;;;;;;;;;5054056;28;20225;-40
2023/04/11 04:05:42;;;;;;;1.53;0.67;;;;;;;;;;5063757;28;20205;-41
2023/04/11 04:08:09;;;;;;;1.03;0.80;;;;;;;;;;5067694;28;20706;-37
2023/04/11 04:10:36;;;;;;;0.50;0.50;;;;;;;;;;5068787;28;20640;-41
2023/04/11 04:13:04;;;;;;;1.60;0.80;;;;;;;;;;5063562;28;20225;-45
2023/04/11 04:15:33;;;;;;;2.30;0.70;;;;;;;;;;5061978;28;20209;-35
2023/04/11 04:18:00;;;;;;;1.67;0.60;;;;;;;;;;5063203;28;20208;-36
2023/04/11 04:20:28;;;;;;;0.60;0.60;;;;;;;;;;5068841;28;20311;-40
2023/04/11 04:22:55;;;;;;;1.17;0.70;;;;;;;;;;5069288;28;20258;-39
2023/04/11 04:25:23;;;;;;;0.87;0.53;;;;;;;;;;5060974;28;20292;-41
2023/04/11 04:27:52;;;;;;;1.60;0.50;;;;;;;;;;5060828;28;20248;-43
2023/04/11 04:30:20;;;;;;;1.40;0.80;;;;;;;;;;5067138;28;20208;-42
2023/04/11 04:32:53;;;;;;;0.90;0.63;;;;;;;;;;5061162;28;20575;-41
2023/04/11 04:35:20;;;;;;;1.50;0.70;;;;;;;;;;5072148;28;20213;-40
2023/04/11 04:37:48;;;;;;;0.67;0.50;;;;;;;;;;5072348;28;20204;-43
2023/04/11 04:40:19;;;;;;;0.60;0.60;;;;;;;;;;5067634;28;20228;-37
2023/04/11 04:42:48;;;;;;;5.20;0.83;;;;;;;;;;5055769;28;20698;-42
2023/04/11 04:45:16;;;;;;;0.70;0.57;;;;;;;;;;5068988;28;20208;-44
2023/04/11 04:47:43;;;;;;;2.73;0.70;;;;;;;;;;5053076;28;20216;-36
2023/04/11 04:50:12;;;;;;;2.27;1.17;;;;;;;;;;5056530;28;20643;-44
2023/04/11 04:52:39;;;;;;;2.13;0.97;;;;;;;;;;5066161;28;20386;-37
2023/04/11 04:55:06;;;;;;;1.00;0.80;;;;;;;;;;5058805;28;20206;-44
2023/04/11 04:57:33;;;;;;;1.47;0.90;;;;;;;;;;5068112;28;20216;-40
2023/04/11 05:00:01;;;;;;;1.93;0.77;;;;;;;;;;5069195;28;20588;-37
2023/04/11 05:02:28;;;;;;;0.37;0.37;;;;;;;;;;5056755;28;20711;-39
2023/04/11 05:04:55;;;;;;;2.67;0.60;;;;;;;;;;5068386;28;20404;-40
2023/04/11 05:07:25;;;;;;;0.43;0.43;;;;;;;;;;5069286;28;20209;-41
2023/04/11 05:09:52;;;;;;;3.00;0.40;;;;;;;;;;5067273;28;20207;-40
2023/04/11 05:12:25;;;;;;;0.50;0.37;;;;;;;;;;5058770;28;20195;-37
2023/04/11 05:14:54;;;;;;;0.30;0.30;;;;;;;;;;5060397;28;20212;-41
2023/04/11 05:17:21;;;;;;;0.67;0.50;;;;;;;;;;5063385;28;20213;-40
2023/04/11 05:19:48;;;;;;;0.93;0.50;;;;;;;;;;5060749;28;20223;-41
2023/04/11 05:22:15;;;;;;;1.73;0.40;;;;;;;;;;5066146;28;20222;-36
2023/04/11 05:24:44;;;;;;;3.30;0.60;;;;;;;;;;5070683;28;20227;-37
2023/04/11 05:27:12;;;;;;;0.40;0.40;;;;;;;;;;5072684;28;20232;-40
2023/04/11 05:29:39;;;;;;;0.53;0.40;;;;;;;;;;5064274;28;20206;-38
2023/04/11 05:32:06;;;;;;;1.03;0.40;;;;;;;;;;5062501;28;20734;-39
2023/04/11 05:40:08;;;;;;;1.23;0.50;;;;;;;;;;5061867;28;20202;-45
2023/04/11 05:42:36;;;;;;;0.80;0.30;;;;;;;;;;5056814;28;20237;-42
2023/04/11 05:45:03;;;;;;;0.50;0.50;;;;;;;;;;5059089;28;20245;-39
2023/04/11 05:47:31;;;;;;;0.33;0.20;;;;;;;;;;5045700;28;20206;-36
2023/04/11 05:49:58;;;;;;;0.77;0.47;;;;;;;;;;5065547;28;20194;-43
2023/04/11 05:52:25;;;;;;;1.07;0.60;;;;;;;;;;5074285;28;20302;-37
2023/04/11 05:54:52;;;;;;;6.83;1.00;;;;;;;;;;5073325;28;20209;-42
2023/04/11 05:57:22;;;;;;;1.03;0.60;;;;;;;;;;5055615;28;20209;-43
2023/04/11 05:59:51;;;;;;;0.83;0.43;;;;;;;;;;5058142;28;20231;-36
2023/04/11 06:02:18;;;;;;;1.87;0.80;;;;;;;;;;5048646;28;20218;-35
2023/04/11 06:04:46;;;;;;;0.30;0.30;;;;;;;;;;5057117;28;20229;-40
2023/04/11 06:07:13;;;;;;;0.50;0.47;;;;;;;;;;5057466;28;20206;-40
2023/04/11 06:09:41;;;;;;;2.73;0.60;;;;;;;;;;5052046;28;20202;-39
2023/04/11 06:12:08;;;;;;;1.23;0.43;;;;;;;;;;5052806;28;20209;-36
2023/04/11 06:14:37;;;;;;;0.30;0.30;;;;;;;;;;5066620;28;20227;-40
2023/04/11 06:17:04;;;;;;;2.07;0.50;;;;;;;;;;5043299;28;20666;-41
2023/04/11 06:19:32;;;;;;;0.50;0.50;;;;;;;;;;5060618;28;20212;-34
2023/04/11 06:21:59;;;;;;;0.40;0.40;;;;;;;;;;5059549;28;20218;-44
2023/04/11 06:24:35;;;;;;;0.37;0.37;;;;;;;;;;5054019;28;20711;-39
2023/04/11 06:27:02;;;;;;;4.27;0.83;;;;;;;;;;5051448;28;20202;-37
2023/04/11 06:29:29;;;;;;;0.50;0.50;;;;;;;;;;5061365;28;20213;-42
2023/04/11 06:31:58;;;;;;;1.23;0.67;;;;;;;;;;5056588;28;20563;-37
2023/04/11 06:34:25;;;;;;;0.90;0.50;;;;;;;;;;5054894;28;20218;-41
2023/04/11 06:36:52;;;;;;;0.50;0.50;;;;;;;;;;5051133;28;20202;-41
2023/04/11 06:39:19;;;;;;;3.23;2.10;;;;;;;;;;5048482;28;20312;-36
2023/04/11 06:41:47;;;;;;;1.37;0.70;;;;;;;;;;5046272;28;20226;-43
2023/04/11 06:44:14;;;;;;;1.03;0.60;;;;;;;;;;5071013;28;20217;-40
2023/04/11 06:46:41;;;;;;;1.50;0.80;;;;;;;;;;5051290;28;20241;-38
2023/04/11 06:49:10;;;;;;;0.90;0.50;;;;;;;;;;5051282;28;20230;-36
2023/04/11 06:51:38;;;;;;;1.27;0.43;;;;;;;;;;5061398;28;20209;-37
2023/04/11 06:54:05;;;;;;;0.90;0.40;;;;;;;;;;5071803;28;20274;-40
2023/04/11 06:56:32;;;;;;;1.27;0.40;;;;;;;;;;5047285;28;20221;-43
2023/04/11 06:59:00;;;;;;;1.70;0.50;;;;;;;;;;5044365;28;20301;-40
2023/04/11 07:01:32;;;;;;;0.80;0.40;;;;;;;;;;5040754;28;20228;-41
2023/04/11 07:03:59;;;;;;;0.77;0.33;;;;;;;;;;5048803;28;20323;-33
2023/04/11 07:06:28;;;;;;;1.13;0.50;;;;;;;;;;5071110;28;20201;-42
2023/04/11 07:08:55;;;;;;;0.60;0.57;;;;;;;;;;5056826;28;20563;-35
2023/04/11 07:11:23;;;;;;;0.60;0.40;;;;;;;;;;5055323;28;20213;-38
2023/04/11 07:13:50;;;;;;;3.20;0.63;;;;;;;;;;5059883;28;20289;-40
2023/04/11 07:16:17;;;;;;;0.83;0.60;;;;;;;;;;5042910;28;20209;-37
2023/04/11 07:18:44;;;;;;;1.07;0.50;;;;;;;;;;5051677;28;20558;-37
2023/04/11 07:21:12;;;;;;;0.73;0.47;;;;;;;;;;5070687;28;20213;-37
2023/04/11 07:23:41;;;;;;;0.70;0.50;;;;;;;;;;5064186;28;20227;-42
2023/04/11 07:26:09;;;;;;;0.60;0.60;;;;;;;;;;5056419;28;20288;-43
2023/04/11 07:28:37;;;;;;;1.63;0.53;;;;;;;;;;5070896;28;20205;-37
2023/04/11 07:31:04;;;;;;;0.47;0.40;;;;;;;;;;5058153;28;20276;-36
2023/04/11 07:33:31;;;;;;;0.63;0.30;;;;;;;;;;5047787;28;20221;-36
2023/04/11 07:35:59;;;;;;;2.13;0.60;;;;;;;;;;5064382;28;20202;-39
2023/04/11 07:38:29;;;;;;;1.77;0.40;;;;;;;;;;5064710;28;20219;-41
2023/04/11 07:40:59;;;;;;;0.80;0.50;;;;;;;;;;5050813;28;20229;-40
2023/04/11 07:43:26;;;;;;;1.40;0.50;;;;;;;;;;5070698;28;20221;-41
2023/04/11 07:45:53;;;;;;;1.47;0.87;;;;;;;;;;5062682;28;20290;-39
2023/04/11 07:48:21;;;;;;;2.27;0.60;;;;;;;;;;5046634;28;20274;-37
2023/04/11 07:50:49;;;;;;;1.73;1.10;;;;;;;;;;5053763;28;20284;-41
2023/04/11 07:53:16;;;;;;;1.13;0.70;;;;;;;;;;5071044;28;20590;-40
2023/04/11 07:55:43;;;;;;;1.07;0.50;;;;;;;;;;5061536;28;20238;-42
2023/04/11 07:58:12;;;;;;;1.20;0.60;;;;;;;;;;5057848;28;20203;-35
2023/04/11 08:00:39;;;;;;;1.23;0.60;;;;;;;;;;5056182;28;20208;-38
2023/04/11 08:03:07;;;;;;;2.17;0.70;;;;;;;;;;5053074;28;20236;-40
2023/04/11 08:05:35;;;;;;;0.90;0.40;;;;;;;;;;5051040;28;20388;-41
2023/04/11 08:08:03;;;;;;;0.40;0.40;;;;;;;;;;5050145;28;20214;-38
2023/04/11 08:10:30;;;;;;;0.70;0.50;;;;;;;;;;5039840;28;20221;-40
2023/04/11 08:12:58;;;;;;;2.53;0.53;;;;;;;;;;5052331;28;20214;-41
2023/04/11 08:15:26;;;;;;;1.13;0.70;;;;;;;;;;5055114;28;20194;-36
2023/04/11 08:17:55;;;;;;;2.87;0.60;;;;;;;;;;5052144;28;20194;-41
2023/04/11 08:20:24;;;;;;;0.90;0.37;;;;;;;;;;5057154;28;20286;-37
2023/04/11 08:22:51;;;;;;;2.10;0.73;;;;;;;;;;5049962;28;20234;-37
2023/04/11 08:25:21;;;;;;;2.77;1.07;;;;;;;;;;5044932;28;20214;-41
2023/04/11 08:27:49;;;;;;;2.37;0.73;;;;;;;;;;5045449;28;20235;-44
2023/04/11 08:30:17;;;;;;;2.33;0.63;;;;;;;;;;5056048;28;20199;-38
2023/04/11 08:32:45;;;;;;;1.80;0.70;;;;;;;;;;5050944;28;20256;-36
2023/04/11 08:35:12;;;;;;;1.07;0.80;;;;;;;;;;5049251;28;20266;-38
2023/04/11 08:37:40;;;;;;;0.50;0.50;;;;;;;;;;5068380;28;20296;-34
2023/04/11 08:40:08;;;;;;;1.63;0.67;;;;;;;;;;5062406;28;20208;-33
2023/04/11 08:42:35;;;;;;;3.97;1.10;;;;;;;;;;5042437;28;20424;-41
2023/04/11 08:45:03;;;;;;;0.70;0.70;;;;;;;;;;5057164;28;20211;-37
2023/04/11 08:47:30;;;;;;;1.97;0.77;;;;;;;;;;5046050;28;20205;-35
2023/04/11 08:49:58;;;;;;;2.40;0.60;;;;;;;;;;5048779;28;20650;-39
2023/04/11 08:52:26;;;;;;;2.00;0.80;;;;;;;;;;5065666;28;20194;-36
2023/04/11 08:54:54;;;;;;;1.23;0.60;;;;;;;;;;5050071;28;20205;-41
2023/04/11 08:57:24;;;;;;;1.17;0.53;;;;;;;;;;5048710;28;20705;-40
2023/04/11 08:59:51;;;;;;;1.67;0.83;;;;;;;;;;5041908;28;20292;-37
2023/04/11 09:02:18;;;;;;;1.80;0.67;;;;;;;;;;5051058;28;20229;-43
2023/04/11 09:04:46;;;;;;;1.77;0.80;;;;;;;;;;5055750;28;20229;-37
2023/04/11 09:07:15;;;;;;;1.57;0.93;;;;;;;;;;5073007;28;20232;-38
2023/04/11 09:09:43;;;;;;;4.30;0.93;;;;;;;;;;5062360;28;20220;-42
2023/04/11 09:12:10;;;;;;;2.53;0.77;;;;;;;;;;5059381;28;20280;-40
2023/04/11 09:14:37;;;;;;;3.27;0.83;;;;;;;;;;5070708;28;20245;-42
2023/04/11 09:17:11;;;;;;;3.13;0.80;;;;;;;;;;5040239;28;20206;-41
2023/04/11 09:19:39;;;;;;;3.47;0.80;;;;;;;;;;5048451;28;20211;-44
2023/04/11 09:22:06;;;;;;;3.20;1.20;;;;;;;;;;5058437;28;20224;-41
2023/04/11 09:24:35;;;;;;;4.13;1.00;;;;;;;;;;5052633;28;20233;-38
2023/04/11 09:27:09;;;;;;;4.33;1.10;;;;;;;;;;5044473;28;20658;-42
2023/04/11 09:29:37;;;;;;;3.80;0.80;;;;;;;;;;5051444;28;20233;-38
2023/04/11 09:32:05;;;;;;;1.63;0.80;;;;;;;;;;5051903;28;20204;-42
2023/04/11 09:34:32;;;;;;;3.20;0.70;;;;;;;;;;5055431;28;20226;-41
2023/04/11 09:36:59;;;;;;;0.60;0.50;;;;;;;;;;5072359;28;20208;-42
2023/04/11 09:39:28;;;;;;;2.23;1.00;;;;;;;;;;5072157;28;20237;-41
2023/04/11 09:41:56;;;;;;;1.77;0.70;;;;;;;;;;5052667;28;20656;-37
2023/04/11 09:44:36;;;;;;;0.50;0.40;;;;;;;;;;5059674;28;20248;-40
2023/04/11 09:47:03;;;;;;;0.83;0.47;;;;;;;;;;5051429;28;20205;-36
2023/04/11 09:49:33;;;;;;;3.60;0.90;;;;;;;;;;5054029;28;20205;-37
2023/04/11 09:52:00;;;;;;;1.10;0.60;;;;;;;;;;5051790;28;20209;-37
2023/04/11 09:54:28;;;;;;;2.87;1.10;;;;;;;;;;5052082;28;20239;-40
2023/04/11 09:56:57;;;;;;;2.17;0.90;;;;;;;;;;5039534;28;20686;-39
2023/04/11 09:59:26;;;;;;;4.73;1.03;;;;;;;;;;5059656;28;20220;-36
2023/04/11 10:01:53;;;;;;;2.23;1.00;;;;;;;;;;5056936;28;20226;-41
2023/04/11 10:04:21;;;;;;;1.77;0.80;;;;;;;;;;5054860;28;20865;-43
2023/04/11 10:06:52;;;;;;;0.60;0.47;;;;;;;;;;5071489;28;20572;-39
2023/04/11 10:09:20;;;;;;;3.50;0.60;;;;;;;;;;5059189;28;20239;-42
2023/04/11 10:11:48;;;;;;;3.87;0.63;;;;;;;;;;5042306;28;20285;-37
2023/04/11 10:14:32;;;;;;;1.57;0.87;;;;;;;;;;5059819;28;20311;-40
2023/04/11 10:17:14;;;;;;;1.50;0.77;;;;;;;;;;5030408;28;20571;-38
2023/04/11 10:19:41;;;;;;;3.63;0.80;;;;;;;;;;5067392;28;20229;-38
2023/04/11 10:22:08;;;;;;;3.67;1.30;;;;;;;;;;5051467;28;20286;-38
2023/04/11 10:24:36;;;;;;;3.03;0.80;;;;;;;;;;5051581;28;20301;-42
2023/04/11 10:27:04;;;;;;;1.67;0.87;;;;;;;;;;5049240;28;20303;-42
2023/04/11 10:29:50;;;;;;;1.20;0.70;;;;;;;;;;5045164;28;20202;-39
2023/04/11 10:32:25;;;;;;;1.27;0.63;;;;;;;;;;5041937;28;20207;-40
2023/04/11 10:35:11;;;;;;;2.03;1.00;;;;;;;;;;5045213;28;20199;-41
2023/04/11 10:37:38;;;;;;;1.47;0.50;;;;;;;;;;5043649;28;20205;-39
2023/04/11 10:40:08;;;;;;;2.63;0.87;;;;;;;;;;5042437;28;20473;-41
2023/04/11 10:42:36;;;;;;;1.97;0.80;;;;;;;;;;5039762;28;20231;-39
2023/04/11 10:45:23;;;;;;;4.60;1.00;;;;;;;;;;5043330;28;20294;-39
2023/04/11 10:48:06;;;;;;;3.07;0.70;;;;;;;;;;5044257;28;20696;-39
2023/04/11 10:50:35;;;;;;;1.40;0.70;;;;;;;;;;5039750;28;20219;-36
2023/04/11 10:53:03;;;;;;;2.60;0.97;;;;;;;;;;5042743;28;20224;-43
2023/04/11 10:55:34;;;;;;;1.40;0.77;;;;;;;;;;5040244;28;20284;-39
2023/04/11 10:58:05;;;;;;;1.07;0.60;;;;;;;;;;5048402;28;20204;-41
2023/04/11 11:01:05;;;;;;;1.30;0.53;;;;;;;;;;5038227;28;20708;-38
2023/04/11 11:03:37;;;;;;;2.30;0.90;;;;;;;;;;5034795;28;20224;-40
2023/04/11 11:06:07;;;;;;;2.40;0.80;;;;;;;;;;5045421;28;20206;-44
2023/04/11 11:08:41;;;;;;;1.50;1.03;;;;;;;;;;5053297;28;20304;-46
2023/04/11 11:11:10;;;;;;;1.17;0.70;;;;;;;;;;5046934;28;20206;-42
2023/04/11 11:13:40;;;;;;;1.03;0.73;;;;;;;;;;5042049;28;20316;-41
2023/04/11 11:16:08;;;;;;;0.37;0.30;;;;;;;;;;5038043;28;20240;-41
2023/04/11 11:18:37;;;;;;;2.30;0.63;;;;;;;;;;5044019;28;20616;-40
2023/04/11 11:21:05;;;;;;;3.03;0.80;;;;;;;;;;5049431;28;20241;-40
2023/04/11 11:23:33;;;;;;;1.13;0.57;;;;;;;;;;5043572;28;20228;-40
2023/04/11 11:26:01;;;;;;;3.30;0.77;;;;;;;;;;5047833;28;20243;-41
2023/04/11 11:28:28;;;;;;;1.30;0.73;;;;;;;;;;5056956;28;20842;-40
2023/04/11 11:30:56;;;;;;;3.80;1.10;;;;;;;;;;5039804;28;20292;-40
2023/04/11 11:33:25;;;;;;;2.93;0.77;;;;;;;;;;5039127;28;20232;-42
2023/04/11 11:35:55;;;;;;;2.30;0.90;;;;;;;;;;5046936;28;20208;-39
2023/04/11 11:38:25;;;;;;;4.90;2.07;;;;;;;;;;5047918;28;20210;-37
2023/04/11 11:40:53;;;;;;;0.97;0.80;;;;;;;;;;5043367;28;20284;-38
2023/04/11 11:43:20;;;;;;;1.27;0.80;;;;;;;;;;5045594;28;20264;-38
2023/04/11 11:45:47;;;;;;;1.70;0.87;;;;;;;;;;5044563;28;20230;-38
2023/04/11 11:48:21;;;;;;;2.57;0.80;;;;;;;;;;5040021;28;20202;-43
2023/04/11 11:51:01;;;;;;;4.60;1.27;;;;;;;;;;5057646;28;20206;-44
2023/04/11 11:53:28;;;;;;;3.07;0.90;;;;;;;;;;5046057;28;20781;-42
2023/04/11 11:55:56;;;;;;;1.07;0.83;;;;;;;;;;5039066;28;20202;-45
2023/04/11 11:58:24;;;;;;;2.43;0.60;;;;;;;;;;5054029;28;20574;-39
2023/04/11 12:00:52;;;;;;;2.10;0.90;;;;;;;;;;5044756;28;20783;-40
2023/04/11 12:03:21;;;;;;;3.00;0.90;;;;;;;;;;5046809;28;20247;-42
2023/04/11 12:05:50;;;;;;;1.33;1.13;;;;;;;;;;5051333;28;20205;-40
2023/04/11 12:08:22;;;;;;;2.80;0.80;;;;;;;;;;5044386;28;20640;-42
2023/04/11 12:10:50;;;;;;;0.90;0.80;;;;;;;;;;5045029;28;20212;-39
2023/04/11 12:13:19;;;;;;;2.80;0.50;;;;;;;;;;5046825;28;20249;-43
2023/04/11 12:15:49;;;;;;;3.37;1.17;;;;;;;;;;5053691;28;20211;-42
2023/04/11 12:18:17;;;;;;;0.70;0.63;;;;;;;;;;5045555;28;20210;-44
2023/04/11 12:20:44;;;;;;;1.90;0.87;;;;;;;;;;5052441;28;20581;-43
2023/04/11 12:23:11;;;;;;;2.30;0.90;;;;;;;;;;5049122;28;20265;-42
2023/04/11 12:25:40;;;;;;;1.93;0.70;;;;;;;;;;5046711;28;20215;-44
2023/04/11 12:28:07;;;;;;;0.87;0.67;;;;;;;;;;5052448;28;20209;-42
2023/04/11 12:30:34;;;;;;;2.87;0.80;;;;;;;;;;5044407;28;20203;-41
2023/04/11 12:33:02;;;;;;;1.40;0.70;;;;;;;;;;5037633;28;20249;-36
2023/04/11 12:35:29;;;;;;;5.30;0.70;;;;;;;;;;5055219;28;20203;-37
2023/04/11 12:37:57;;;;;;;13.27;2.60;;;;;;;;;;5054382;28;20720;-45
2023/04/11 12:40:24;;;;;;;4.80;0.87;;;;;;;;;;5054148;28;20242;-36
2023/04/11 12:42:53;;;;;;;1.07;0.90;;;;;;;;;;5047674;28;20221;-43
2023/04/11 12:45:20;;;;;;;0.83;0.70;;;;;;;;;;5053074;28;20203;-40
2023/04/11 12:47:47;;;;;;;1.37;0.63;;;;;;;;;;5047004;28;20204;-43
2023/04/11 12:50:14;;;;;;;3.63;0.70;;;;;;;;;;5063710;28;20549;-37
2023/04/11 12:52:41;;;;;;;1.87;0.90;;;;;;;;;;5061318;28;20215;-40
2023/04/11 12:55:09;;;;;;;2.87;0.80;;;;;;;;;;5044171;28;20206;-43
2023/04/11 12:57:36;;;;;;;2.13;0.87;;;;;;;;;;5052618;28;20205;-36
2023/04/11 13:00:07;;;;;;;3.20;1.03;;;;;;;;;;5062896;28;20206;-42
2023/04/11 13:02:34;;;;;;;1.83;0.60;;;;;;;;;;5037726;28;20213;-43
2023/04/11 13:05:05;;;;;;;3.03;0.97;;;;;;;;;;5049022;28;20203;-35
2023/04/11 13:07:32;;;;;;;1.07;0.90;;;;;;;;;;5052240;28;20580;-42
2023/04/11 13:09:59;;;;;;;3.67;0.90;;;;;;;;;;5050035;28;20211;-37
2023/04/11 13:12:26;;;;;;;2.00;0.90;;;;;;;;;;5061039;28;20295;-39
2023/04/11 13:14:55;;;;;;;2.80;0.70;;;;;;;;;;5075593;28;20210;-39
2023/04/11 13:17:24;;;;;;;1.13;0.90;;;;;;;;;;5046848;28;20206;-41
2023/04/11 13:19:51;;;;;;;0.77;0.67;;;;;;;;;;5048993;28;20231;-43
2023/04/11 13:22:18;;;;;;;2.63;0.80;;;;;;;;;;5054604;28;20293;-42
2023/04/11 13:24:45;;;;;;;1.03;0.67;;;;;;;;;;5053782;28;20230;-45
2023/04/11 13:27:12;;;;;;;1.60;0.80;;;;;;;;;;5046465;28;20560;-36
2023/04/11 13:29:40;;;;;;;2.13;0.90;;;;;;;;;;5061362;28;20206;-38
2023/04/11 13:32:07;;;;;;;1.90;0.97;;;;;;;;;;5037387;28;20534;-42
2023/04/11 13:34:38;;;;;;;3.43;1.00;;;;;;;;;;5053743;28;20218;-36
2023/04/11 13:37:05;;;;;;;1.87;0.63;;;;;;;;;;5048504;28;20220;-42
2023/04/11 13:39:32;;;;;;;1.70;0.67;;;;;;;;;;5050889;28;20217;-37
2023/04/11 13:44:55;;;;;;;2.80;0.90;;;;;;;;;;5042333;28;20269;-39
2023/04/11 13:47:36;;;;;;;3.37;0.90;;;;;;;;;;5052762;28;20644;-36
2023/04/11 13:53:34;;;;;;;3.43;0.70;;;;;;;;;;5121196;27;20507;-42
2023/04/11 13:56:33;;;;;;;1.13;0.70;;;;;;;;;;5101899;28;20211;-41
2023/04/11 13:59:16;;;;;;;0.87;0.73;;;;;;;;;;5061304;28;20212;-43
2023/04/11 14:01:48;;;;;;;2.30;0.80;;;;;;;;;;5089447;28;20205;-41
2023/04/11 14:04:34;;;;;;;2.47;1.00;;;;;;;;;;5090463;28;20305;-41
2023/04/11 14:10:00;;;;;;;2.03;0.80;;;;;;;;;;5084928;28;20204;-39
2023/04/11 14:12:51;;;;;;;4.37;1.00;;;;;;;;;;5096710;28;20308;-43
2023/04/11 14:15:28;;;;;;;0.40;0.40;;;;;;;;;;5101517;28;20196;-41
2023/04/11 14:17:56;;;;;;;2.50;0.90;;;;;;;;;;5095254;28;20231;-45
2023/04/11 14:20:31;;;;;;;0.80;0.70;;;;;;;;;;5095274;28;20209;-40
2023/04/11 14:23:12;;;;;;;1.97;1.00;;;;;;;;;;5102369;28;20230;-42
2023/04/11 14:25:52;;;;;;;3.67;1.10;;;;;;;;;;5097683;28;20209;-46
2023/04/11 14:28:44;;;;;;;;;;;;;;;;;;;;;
2023/04/11 14:31:20;;;;;;;1.43;0.77;;;;;;;;;;5095840;28;20236;-36
2023/04/11 14:33:59;;;;;;;0.43;0.30;;;;;;;;;;5094895;28;20232;-43
2023/04/11 14:36:37;;;;;;;2.23;0.70;;;;;;;;;;5093965;28;20228;-43
2023/04/11 14:39:13;;;;;;;3.40;1.00;;;;;;;;;;5085568;28;20210;-43
2023/04/11 14:41:48;;;;;;;2.03;0.77;;;;;;;;;;5094596;28;20209;-40
2023/04/11 14:44:19;;;;;;;1.57;0.60;;;;;;;;;;5096552;28;20215;-38
2023/04/11 14:46:53;;;;;;;3.87;1.00;;;;;;;;;;5103935;28;20213;-35
2023/04/11 14:49:27;;;;;;;4.37;0.90;;;;;;;;;;5098587;28;20217;-43
2023/04/11 14:52:00;;;;;;;1.60;0.77;;;;;;;;;;5085466;28;20286;-40
2023/04/11 14:54:32;;;;;;;1.23;0.90;;;;;;;;;;5095228;28;20229;-42
2023/04/11 14:57:02;;;;;;;1.57;0.77;;;;;;;;;;5099512;28;20212;-38
2023/04/11 14:59:39;;;;;;;1.37;0.63;;;;;;;;;;5102629;28;20287;-38
2023/04/11 15:02:19;;;;;;;2.40;0.83;;;;;;;;;;5093216;28;20232;-40
2023/04/11 15:05:04;;;;;;;2.33;0.70;;;;;;;;;;5086678;28;20313;-42
2023/04/11 15:07:49;;;;;;;3.50;1.00;;;;;;;;;;5092725;28;20208;-43
2023/04/11 15:10:52;;;;;;;0.93;0.67;;;;;;;;;;5091124;28;20209;-41